sensor_id;sensor_type;location;lat;lon;timestamp;temperature;humidity
76996;DHT22;65929;49.062;10.338;2023-03-03T00:00:53;-1.00;87.70
76996;DHT22;65929;49.062;10.338;2023-03-03T00:01:54;-1.00;87.70
76996;DHT22;65929;49.062;10.338;2023-03-03T00:02:57;-1.00;87.60
76996;DHT22;65929;49.062;10.338;2023-03-03T00:04:00;-1.00;87.60
76996;DHT22;65929;49.062;10.338;2023-03-03T00:05:02;-1.00;87.70
76996;DHT22;65929;49.062;10.338;2023-03-03T00:06:04;-1.00;87.70
76996;DHT22;65929;49.062;10.338;2023-03-03T00:07:05;-0.90;87.70
76996;DHT22;65929;49.062;10.338;2023-03-03T00:08:06;-0.90;87.60
76996;DHT22;65929;49.062;10.338;2023-03-03T00:09:07;-0.90;87.30
76996;DHT22;65929;49.062;10.338;2023-03-03T00:10:08;-0.90;87.10
76996;DHT22;65929;49.062;10.338;2023-03-03T00:11:10;-0.90;86.90
76996;DHT22;65929;49.062;10.338;2023-03-03T00:12:23;-0.90;87.00
76996;DHT22;65929;49.062;10.338;2023-03-03T00:13:25;-0.90;87.10
76996;DHT22;65929;49.062;10.338;2023-03-03T00:14:29;-0.90;87.10
76996;DHT22;65929;49.062;10.338;2023-03-03T00:15:30;-1.00;86.90
76996;DHT22;65929;49.062;10.338;2023-03-03T00:16:34;-1.00;86.80
76996;DHT22;65929;49.062;10.338;2023-03-03T00:17:36;-1.00;87.10
76996;DHT22;65929;49.062;10.338;2023-03-03T00:18:41;-1.10;87.30
76996;DHT22;65929;49.062;10.338;2023-03-03T00:19:42;-1.10;87.20
76996;DHT22;65929;49.062;10.338;2023-03-03T00:20:52;-1.10;87.00
76996;DHT22;65929;49.062;10.338;2023-03-03T00:21:56;-1.20;86.90
76996;DHT22;65929;49.062;10.338;2023-03-03T00:23:08;-1.30;86.80
76996;DHT22;65929;49.062;10.338;2023-03-03T00:24:19;-1.30;86.80
76996;DHT22;65929;49.062;10.338;2023-03-03T00:25:28;-1.30;86.80
76996;DHT22;65929;49.062;10.338;2023-03-03T00:26:34;-1.40;86.90
76996;DHT22;65929;49.062;10.338;2023-03-03T00:27:36;-1.50;87.10
76996;DHT22;65929;49.062;10.338;2023-03-03T00:28:44;-1.50;87.30
76996;DHT22;65929;49.062;10.338;2023-03-03T00:29:47;-1.50;87.40
76996;DHT22;65929;49.062;10.338;2023-03-03T00:30:51;-1.50;87.60
76996;DHT22;65929;49.062;10.338;2023-03-03T00:31:53;-1.50;87.80
76996;DHT22;65929;49.062;10.338;2023-03-03T00:32:54;-1.50;88.00
76996;DHT22;65929;49.062;10.338;2023-03-03T00:33:56;-1.50;88.40
76996;DHT22;65929;49.062;10.338;2023-03-03T00:35:15;-1.50;88.40
76996;DHT22;65929;49.062;10.338;2023-03-03T00:36:35;-1.50;88.40
76996;DHT22;65929;49.062;10.338;2023-03-03T00:37:39;-1.50;88.20
76996;DHT22;65929;49.062;10.338;2023-03-03T00:38:41;-1.50;88.30
76996;DHT22;65929;49.062;10.338;2023-03-03T00:39:42;-1.50;88.40
76996;DHT22;65929;49.062;10.338;2023-03-03T00:40:46;-1.50;88.30
76996;DHT22;65929;49.062;10.338;2023-03-03T00:41:48;-1.40;88.20
76996;DHT22;65929;49.062;10.338;2023-03-03T00:42:51;-1.40;88.10
76996;DHT22;65929;49.062;10.338;2023-03-03T00:43:52;-1.50;87.90
76996;DHT22;65929;49.062;10.338;2023-03-03T00:44:56;-1.50;87.90
76996;DHT22;65929;49.062;10.338;2023-03-03T00:45:57;-1.50;88.00
76996;DHT22;65929;49.062;10.338;2023-03-03T00:47:05;-1.50;88.00
76996;DHT22;65929;49.062;10.338;2023-03-03T00:48:26;-1.50;88.10
76996;DHT22;65929;49.062;10.338;2023-03-03T00:49:27;-1.50;88.30
76996;DHT22;65929;49.062;10.338;2023-03-03T00:50:31;-1.50;88.40
76996;DHT22;65929;49.062;10.338;2023-03-03T00:51:34;-1.50;88.40
76996;DHT22;65929;49.062;10.338;2023-03-03T00:52:37;-1.50;88.30
76996;DHT22;65929;49.062;10.338;2023-03-03T00:53:38;-1.50;88.30
76996;DHT22;65929;49.062;10.338;2023-03-03T00:54:39;-1.50;88.20
76996;DHT22;65929;49.062;10.338;2023-03-03T00:55:40;-1.60;88.20
76996;DHT22;65929;49.062;10.338;2023-03-03T00:56:41;-1.60;88.10
76996;DHT22;65929;49.062;10.338;2023-03-03T00:57:42;-1.60;88.10
76996;DHT22;65929;49.062;10.338;2023-03-03T00:58:43;-1.60;88.20
76996;DHT22;65929;49.062;10.338;2023-03-03T00:59:45;-1.60;88.30
76996;DHT22;65929;49.062;10.338;2023-03-03T01:00:47;-1.70;88.50
76996;DHT22;65929;49.062;10.338;2023-03-03T01:01:48;-1.70;88.30
76996;DHT22;65929;49.062;10.338;2023-03-03T01:02:49;-1.70;88.20
76996;DHT22;65929;49.062;10.338;2023-03-03T01:03:51;-1.80;88.30
76996;DHT22;65929;49.062;10.338;2023-03-03T01:04:53;-1.80;88.50
76996;DHT22;65929;49.062;10.338;2023-03-03T01:05:56;-1.80;88.70
76996;DHT22;65929;49.062;10.338;2023-03-03T01:06:58;-1.80;89.00
76996;DHT22;65929;49.062;10.338;2023-03-03T01:07:59;-1.80;89.00
76996;DHT22;65929;49.062;10.338;2023-03-03T01:09:00;-1.80;89.00
76996;DHT22;65929;49.062;10.338;2023-03-03T01:10:01;-1.90;89.00
76996;DHT22;65929;49.062;10.338;2023-03-03T01:11:05;-1.80;89.00
76996;DHT22;65929;49.062;10.338;2023-03-03T01:12:07;-1.90;88.90
76996;DHT22;65929;49.062;10.338;2023-03-03T01:13:09;-1.90;88.90
76996;DHT22;65929;49.062;10.338;2023-03-03T01:14:10;-1.90;88.90
76996;DHT22;65929;49.062;10.338;2023-03-03T01:15:13;-1.90;89.00
76996;DHT22;65929;49.062;10.338;2023-03-03T01:16:15;-1.90;89.20
76996;DHT22;65929;49.062;10.338;2023-03-03T01:17:16;-1.90;89.20
76996;DHT22;65929;49.062;10.338;2023-03-03T01:18:17;-1.90;89.20
76996;DHT22;65929;49.062;10.338;2023-03-03T01:19:17;-1.90;89.20
76996;DHT22;65929;49.062;10.338;2023-03-03T01:20:19;-1.90;89.10
76996;DHT22;65929;49.062;10.338;2023-03-03T01:21:20;-2.00;89.10
76996;DHT22;65929;49.062;10.338;2023-03-03T01:22:22;-2.00;89.20
76996;DHT22;65929;49.062;10.338;2023-03-03T01:23:23;-2.00;89.20
76996;DHT22;65929;49.062;10.338;2023-03-03T01:24:24;-2.00;89.20
76996;DHT22;65929;49.062;10.338;2023-03-03T01:25:28;-2.00;89.30
76996;DHT22;65929;49.062;10.338;2023-03-03T01:26:28;-2.00;89.50
76996;DHT22;65929;49.062;10.338;2023-03-03T01:27:31;-1.90;89.70
76996;DHT22;65929;49.062;10.338;2023-03-03T01:28:32;-1.90;89.80
76996;DHT22;65929;49.062;10.338;2023-03-03T01:29:33;-1.90;89.70
76996;DHT22;65929;49.062;10.338;2023-03-03T01:31:07;-1.80;89.70
76996;DHT22;65929;49.062;10.338;2023-03-03T01:31:59;-1.80;89.50
76996;DHT22;65929;49.062;10.338;2023-03-03T01:33:03;-1.80;89.30
76996;DHT22;65929;49.062;10.338;2023-03-03T01:34:08;-1.80;89.30
76996;DHT22;65929;49.062;10.338;2023-03-03T01:35:14;-1.80;89.20
76996;DHT22;65929;49.062;10.338;2023-03-03T01:36:21;-1.80;89.10
76996;DHT22;65929;49.062;10.338;2023-03-03T01:37:25;-1.80;89.10
76996;DHT22;65929;49.062;10.338;2023-03-03T01:38:26;-1.70;89.00
76996;DHT22;65929;49.062;10.338;2023-03-03T01:39:27;-1.80;88.80
76996;DHT22;65929;49.062;10.338;2023-03-03T01:40:29;-1.80;88.60
76996;DHT22;65929;49.062;10.338;2023-03-03T01:41:31;-1.80;88.50
76996;DHT22;65929;49.062;10.338;2023-03-03T01:42:36;-1.90;88.40
76996;DHT22;65929;49.062;10.338;2023-03-03T01:43:43;-1.90;88.30
76996;DHT22;65929;49.062;10.338;2023-03-03T01:44:45;-1.90;88.30
76996;DHT22;65929;49.062;10.338;2023-03-03T01:47:27;-2.00;88.20
76996;DHT22;65929;49.062;10.338;2023-03-03T01:48:36;-2.10;88.00
76996;DHT22;65929;49.062;10.338;2023-03-03T01:49:42;-2.10;88.20
76996;DHT22;65929;49.062;10.338;2023-03-03T01:50:47;-2.20;88.30
76996;DHT22;65929;49.062;10.338;2023-03-03T01:51:52;-2.20;88.40
76996;DHT22;65929;49.062;10.338;2023-03-03T01:52:57;-2.20;88.50
76996;DHT22;65929;49.062;10.338;2023-03-03T01:54:00;-2.20;88.80
76996;DHT22;65929;49.062;10.338;2023-03-03T01:55:05;-2.30;88.90
76996;DHT22;65929;49.062;10.338;2023-03-03T01:56:09;-2.30;88.90
76996;DHT22;65929;49.062;10.338;2023-03-03T01:57:14;-2.30;89.10
76996;DHT22;65929;49.062;10.338;2023-03-03T01:58:20;-2.30;89.40
76996;DHT22;65929;49.062;10.338;2023-03-03T01:59:24;-2.30;89.50
76996;DHT22;65929;49.062;10.338;2023-03-03T02:00:26;-2.30;89.70
76996;DHT22;65929;49.062;10.338;2023-03-03T02:01:30;-2.40;89.80
76996;DHT22;65929;49.062;10.338;2023-03-03T02:02:34;-2.30;90.00
76996;DHT22;65929;49.062;10.338;2023-03-03T02:03:35;-2.30;90.10
76996;DHT22;65929;49.062;10.338;2023-03-03T02:04:37;-2.40;90.10
76996;DHT22;65929;49.062;10.338;2023-03-03T02:05:39;-2.40;90.00
76996;DHT22;65929;49.062;10.338;2023-03-03T02:06:46;-2.40;89.90
76996;DHT22;65929;49.062;10.338;2023-03-03T02:07:50;-2.50;89.90
76996;DHT22;65929;49.062;10.338;2023-03-03T02:08:58;-2.50;89.90
76996;DHT22;65929;49.062;10.338;2023-03-03T02:10:04;-2.50;90.10
76996;DHT22;65929;49.062;10.338;2023-03-03T02:11:05;-2.50;90.30
76996;DHT22;65929;49.062;10.338;2023-03-03T02:12:11;-2.40;90.40
76996;DHT22;65929;49.062;10.338;2023-03-03T02:13:13;-2.40;90.50
76996;DHT22;65929;49.062;10.338;2023-03-03T02:14:15;-2.50;90.50
76996;DHT22;65929;49.062;10.338;2023-03-03T02:15:18;-2.40;90.50
76996;DHT22;65929;49.062;10.338;2023-03-03T02:16:19;-2.40;90.50
76996;DHT22;65929;49.062;10.338;2023-03-03T02:17:20;-2.40;90.50
76996;DHT22;65929;49.062;10.338;2023-03-03T02:18:22;-2.40;90.40
76996;DHT22;65929;49.062;10.338;2023-03-03T02:19:31;-2.40;90.40
76996;DHT22;65929;49.062;10.338;2023-03-03T02:20:42;-2.40;90.40
76996;DHT22;65929;49.062;10.338;2023-03-03T02:21:44;-2.50;90.30
76996;DHT22;65929;49.062;10.338;2023-03-03T02:22:50;-2.50;90.30
76996;DHT22;65929;49.062;10.338;2023-03-03T02:23:59;-2.50;90.20
76996;DHT22;65929;49.062;10.338;2023-03-03T02:25:05;-2.50;90.10
76996;DHT22;65929;49.062;10.338;2023-03-03T02:26:11;-2.60;90.10
76996;DHT22;65929;49.062;10.338;2023-03-03T02:27:13;-2.60;90.10
76996;DHT22;65929;49.062;10.338;2023-03-03T02:28:14;-2.60;90.00
76996;DHT22;65929;49.062;10.338;2023-03-03T02:29:15;-2.70;90.00
76996;DHT22;65929;49.062;10.338;2023-03-03T02:30:22;-2.70;90.10
76996;DHT22;65929;49.062;10.338;2023-03-03T02:31:25;-2.70;90.20
76996;DHT22;65929;49.062;10.338;2023-03-03T02:32:27;-2.70;90.40
76996;DHT22;65929;49.062;10.338;2023-03-03T02:33:28;-2.70;90.40
76996;DHT22;65929;49.062;10.338;2023-03-03T02:34:29;-2.70;90.40
76996;DHT22;65929;49.062;10.338;2023-03-03T02:35:32;-2.70;90.50
76996;DHT22;65929;49.062;10.338;2023-03-03T02:36:36;-2.70;90.50
76996;DHT22;65929;49.062;10.338;2023-03-03T02:37:37;-2.80;90.40
76996;DHT22;65929;49.062;10.338;2023-03-03T02:38:42;-2.80;90.50
76996;DHT22;65929;49.062;10.338;2023-03-03T02:39:44;-2.80;90.50
76996;DHT22;65929;49.062;10.338;2023-03-03T02:40:52;-2.80;90.50
76996;DHT22;65929;49.062;10.338;2023-03-03T02:42:02;-2.80;90.50
76996;DHT22;65929;49.062;10.338;2023-03-03T02:43:06;-2.90;90.50
76996;DHT22;65929;49.062;10.338;2023-03-03T02:44:09;-2.90;90.60
76996;DHT22;65929;49.062;10.338;2023-03-03T02:45:10;-2.90;90.70
76996;DHT22;65929;49.062;10.338;2023-03-03T02:46:11;-2.90;90.90
76996;DHT22;65929;49.062;10.338;2023-03-03T02:47:12;-2.80;90.90
76996;DHT22;65929;49.062;10.338;2023-03-03T02:48:13;-2.90;91.10
76996;DHT22;65929;49.062;10.338;2023-03-03T02:49:17;-2.80;91.20
76996;DHT22;65929;49.062;10.338;2023-03-03T02:50:18;-2.90;91.30
76996;DHT22;65929;49.062;10.338;2023-03-03T02:51:19;-2.80;91.50
76996;DHT22;65929;49.062;10.338;2023-03-03T02:52:20;-2.80;91.70
76996;DHT22;65929;49.062;10.338;2023-03-03T02:53:22;-2.80;91.70
76996;DHT22;65929;49.062;10.338;2023-03-03T02:54:24;-2.80;91.90
76996;DHT22;65929;49.062;10.338;2023-03-03T02:55:25;-2.80;91.90
76996;DHT22;65929;49.062;10.338;2023-03-03T02:56:26;-2.80;91.90
76996;DHT22;65929;49.062;10.338;2023-03-03T02:57:29;-2.80;91.90
76996;DHT22;65929;49.062;10.338;2023-03-03T02:58:30;-2.80;91.90
76996;DHT22;65929;49.062;10.338;2023-03-03T02:59:31;-2.80;91.80
76996;DHT22;65929;49.062;10.338;2023-03-03T03:00:32;-2.80;91.60
76996;DHT22;65929;49.062;10.338;2023-03-03T03:01:33;-2.80;91.50
76996;DHT22;65929;49.062;10.338;2023-03-03T03:02:36;-2.80;91.50
76996;DHT22;65929;49.062;10.338;2023-03-03T03:03:37;-2.80;91.40
76996;DHT22;65929;49.062;10.338;2023-03-03T03:04:39;-2.90;91.40
76996;DHT22;65929;49.062;10.338;2023-03-03T03:05:39;-2.90;91.30
76996;DHT22;65929;49.062;10.338;2023-03-03T03:06:41;-2.90;91.30
76996;DHT22;65929;49.062;10.338;2023-03-03T03:07:42;-2.90;91.40
76996;DHT22;65929;49.062;10.338;2023-03-03T03:08:43;-2.80;91.40
76996;DHT22;65929;49.062;10.338;2023-03-03T03:09:44;-2.80;91.50
76996;DHT22;65929;49.062;10.338;2023-03-03T03:10:45;-2.80;91.50
76996;DHT22;65929;49.062;10.338;2023-03-03T03:11:46;-2.80;91.60
76996;DHT22;65929;49.062;10.338;2023-03-03T03:12:49;-2.80;91.50
76996;DHT22;65929;49.062;10.338;2023-03-03T03:13:49;-2.80;91.50
76996;DHT22;65929;49.062;10.338;2023-03-03T03:14:51;-2.80;91.50
76996;DHT22;65929;49.062;10.338;2023-03-03T03:15:52;-2.70;91.50
76996;DHT22;65929;49.062;10.338;2023-03-03T03:16:53;-2.70;91.50
76996;DHT22;65929;49.062;10.338;2023-03-03T03:17:54;-2.70;91.40
76996;DHT22;65929;49.062;10.338;2023-03-03T03:18:56;-2.70;91.30
76996;DHT22;65929;49.062;10.338;2023-03-03T03:19:57;-2.70;91.20
76996;DHT22;65929;49.062;10.338;2023-03-03T03:21:05;-2.70;91.20
76996;DHT22;65929;49.062;10.338;2023-03-03T03:22:06;-2.70;91.10
76996;DHT22;65929;49.062;10.338;2023-03-03T03:23:07;-2.70;91.10
76996;DHT22;65929;49.062;10.338;2023-03-03T03:24:08;-2.70;91.20
76996;DHT22;65929;49.062;10.338;2023-03-03T03:25:09;-2.70;91.10
76996;DHT22;65929;49.062;10.338;2023-03-03T03:26:11;-2.80;91.10
76996;DHT22;65929;49.062;10.338;2023-03-03T03:27:12;-2.80;91.00
76996;DHT22;65929;49.062;10.338;2023-03-03T03:28:15;-2.80;91.00
76996;DHT22;65929;49.062;10.338;2023-03-03T03:29:16;-2.90;91.00
76996;DHT22;65929;49.062;10.338;2023-03-03T03:30:17;-2.90;90.90
76996;DHT22;65929;49.062;10.338;2023-03-03T03:31:20;-2.90;90.90
76996;DHT22;65929;49.062;10.338;2023-03-03T03:32:22;-3.00;90.80
76996;DHT22;65929;49.062;10.338;2023-03-03T03:33:23;-3.00;90.90
76996;DHT22;65929;49.062;10.338;2023-03-03T03:34:24;-3.00;90.90
76996;DHT22;65929;49.062;10.338;2023-03-03T03:35:25;-3.00;90.90
76996;DHT22;65929;49.062;10.338;2023-03-03T03:36:26;-3.00;90.70
76996;DHT22;65929;49.062;10.338;2023-03-03T03:37:27;-3.10;90.60
76996;DHT22;65929;49.062;10.338;2023-03-03T03:38:28;-3.10;90.60
76996;DHT22;65929;49.062;10.338;2023-03-03T03:39:29;-3.10;90.50
76996;DHT22;65929;49.062;10.338;2023-03-03T03:40:30;-3.20;90.60
76996;DHT22;65929;49.062;10.338;2023-03-03T03:41:31;-3.20;90.60
76996;DHT22;65929;49.062;10.338;2023-03-03T03:42:32;-3.20;90.60
76996;DHT22;65929;49.062;10.338;2023-03-03T03:43:34;-3.20;90.60
76996;DHT22;65929;49.062;10.338;2023-03-03T03:44:35;-3.20;90.70
76996;DHT22;65929;49.062;10.338;2023-03-03T03:45:36;-3.20;90.90
76996;DHT22;65929;49.062;10.338;2023-03-03T03:46:37;-3.20;91.30
76996;DHT22;65929;49.062;10.338;2023-03-03T03:47:38;-3.20;91.60
76996;DHT22;65929;49.062;10.338;2023-03-03T03:48:39;-3.10;91.70
76996;DHT22;65929;49.062;10.338;2023-03-03T03:49:40;-3.10;91.80
76996;DHT22;65929;49.062;10.338;2023-03-03T03:50:41;-3.10;91.70
76996;DHT22;65929;49.062;10.338;2023-03-03T03:51:42;-3.10;91.80
76996;DHT22;65929;49.062;10.338;2023-03-03T03:52:43;-3.10;91.80
76996;DHT22;65929;49.062;10.338;2023-03-03T03:54:00;-3.10;92.00
76996;DHT22;65929;49.062;10.338;2023-03-03T03:55:01;-3.10;92.00
76996;DHT22;65929;49.062;10.338;2023-03-03T03:56:03;-3.00;92.20
76996;DHT22;65929;49.062;10.338;2023-03-03T03:57:04;-3.00;92.30
76996;DHT22;65929;49.062;10.338;2023-03-03T03:58:05;-3.00;92.30
76996;DHT22;65929;49.062;10.338;2023-03-03T03:59:08;-3.00;92.30
76996;DHT22;65929;49.062;10.338;2023-03-03T04:00:10;-3.00;92.10
76996;DHT22;65929;49.062;10.338;2023-03-03T04:01:11;-3.10;92.00
76996;DHT22;65929;49.062;10.338;2023-03-03T04:02:12;-3.10;91.90
76996;DHT22;65929;49.062;10.338;2023-03-03T04:03:13;-3.10;92.00
76996;DHT22;65929;49.062;10.338;2023-03-03T04:04:14;-3.00;92.10
76996;DHT22;65929;49.062;10.338;2023-03-03T04:05:15;-3.00;92.10
76996;DHT22;65929;49.062;10.338;2023-03-03T04:06:16;-3.00;92.30
76996;DHT22;65929;49.062;10.338;2023-03-03T04:07:17;-3.00;92.40
76996;DHT22;65929;49.062;10.338;2023-03-03T04:08:18;-3.00;92.40
76996;DHT22;65929;49.062;10.338;2023-03-03T04:09:19;-3.00;92.30
76996;DHT22;65929;49.062;10.338;2023-03-03T04:10:20;-3.10;92.20
76996;DHT22;65929;49.062;10.338;2023-03-03T04:11:21;-3.10;92.00
76996;DHT22;65929;49.062;10.338;2023-03-03T04:12:22;-3.10;91.90
76996;DHT22;65929;49.062;10.338;2023-03-03T04:13:23;-3.20;91.80
76996;DHT22;65929;49.062;10.338;2023-03-03T04:14:25;-3.20;91.70
76996;DHT22;65929;49.062;10.338;2023-03-03T04:15:26;-3.20;91.60
76996;DHT22;65929;49.062;10.338;2023-03-03T04:16:27;-3.20;91.60
76996;DHT22;65929;49.062;10.338;2023-03-03T04:17:28;-3.30;91.60
76996;DHT22;65929;49.062;10.338;2023-03-03T04:18:29;-3.30;91.70
76996;DHT22;65929;49.062;10.338;2023-03-03T04:19:30;-3.30;91.70
76996;DHT22;65929;49.062;10.338;2023-03-03T04:20:31;-3.30;91.70
76996;DHT22;65929;49.062;10.338;2023-03-03T04:21:32;-3.30;91.70
76996;DHT22;65929;49.062;10.338;2023-03-03T04:22:33;-3.30;91.60
76996;DHT22;65929;49.062;10.338;2023-03-03T04:23:35;-3.40;91.60
76996;DHT22;65929;49.062;10.338;2023-03-03T04:24:36;-3.40;91.50
76996;DHT22;65929;49.062;10.338;2023-03-03T04:25:37;-3.40;91.60
76996;DHT22;65929;49.062;10.338;2023-03-03T04:26:38;-3.50;91.50
76996;DHT22;65929;49.062;10.338;2023-03-03T04:27:39;-3.50;91.60
76996;DHT22;65929;49.062;10.338;2023-03-03T04:28:40;-3.50;91.70
76996;DHT22;65929;49.062;10.338;2023-03-03T04:29:42;-3.50;91.80
76996;DHT22;65929;49.062;10.338;2023-03-03T04:30:43;-3.50;91.80
76996;DHT22;65929;49.062;10.338;2023-03-03T04:31:44;-3.50;92.00
76996;DHT22;65929;49.062;10.338;2023-03-03T04:32:45;-3.60;92.00
76996;DHT22;65929;49.062;10.338;2023-03-03T04:33:46;-3.60;92.10
76996;DHT22;65929;49.062;10.338;2023-03-03T04:34:46;-3.60;92.10
76996;DHT22;65929;49.062;10.338;2023-03-03T04:35:47;-3.60;92.10
76996;DHT22;65929;49.062;10.338;2023-03-03T04:36:48;-3.60;92.00
76996;DHT22;65929;49.062;10.338;2023-03-03T04:37:49;-3.60;92.10
76996;DHT22;65929;49.062;10.338;2023-03-03T04:38:50;-3.60;92.10
76996;DHT22;65929;49.062;10.338;2023-03-03T04:39:52;-3.60;92.10
76996;DHT22;65929;49.062;10.338;2023-03-03T04:40:53;-3.60;92.20
76996;DHT22;65929;49.062;10.338;2023-03-03T04:41:54;-3.60;92.30
76996;DHT22;65929;49.062;10.338;2023-03-03T04:42:55;-3.60;92.40
76996;DHT22;65929;49.062;10.338;2023-03-03T04:43:55;-3.60;92.50
76996;DHT22;65929;49.062;10.338;2023-03-03T04:44:58;-3.60;92.50
76996;DHT22;65929;49.062;10.338;2023-03-03T04:45:59;-3.60;92.50
76996;DHT22;65929;49.062;10.338;2023-03-03T04:47:00;-3.60;92.40
76996;DHT22;65929;49.062;10.338;2023-03-03T04:48:00;-3.70;92.30
76996;DHT22;65929;49.062;10.338;2023-03-03T04:49:01;-3.70;92.40
76996;DHT22;65929;49.062;10.338;2023-03-03T04:50:04;-3.70;92.30
76996;DHT22;65929;49.062;10.338;2023-03-03T04:51:05;-3.70;92.30
76996;DHT22;65929;49.062;10.338;2023-03-03T04:52:06;-3.80;92.30
76996;DHT22;65929;49.062;10.338;2023-03-03T04:53:07;-3.70;92.20
76996;DHT22;65929;49.062;10.338;2023-03-03T04:54:08;-3.70;92.20
76996;DHT22;65929;49.062;10.338;2023-03-03T04:55:09;-3.80;92.20
76996;DHT22;65929;49.062;10.338;2023-03-03T04:56:10;-3.80;92.10
76996;DHT22;65929;49.062;10.338;2023-03-03T04:57:11;-3.80;92.10
76996;DHT22;65929;49.062;10.338;2023-03-03T04:58:12;-3.80;92.00
76996;DHT22;65929;49.062;10.338;2023-03-03T04:59:13;-3.80;92.00
76996;DHT22;65929;49.062;10.338;2023-03-03T05:00:16;-3.80;92.00
76996;DHT22;65929;49.062;10.338;2023-03-03T05:01:17;-3.80;91.90
76996;DHT22;65929;49.062;10.338;2023-03-03T05:02:19;-3.80;92.00
76996;DHT22;65929;49.062;10.338;2023-03-03T05:03:20;-3.80;92.10
76996;DHT22;65929;49.062;10.338;2023-03-03T05:04:21;-3.80;92.10
76996;DHT22;65929;49.062;10.338;2023-03-03T05:05:22;-3.80;92.10
76996;DHT22;65929;49.062;10.338;2023-03-03T05:06:23;-3.80;92.10
76996;DHT22;65929;49.062;10.338;2023-03-03T05:07:24;-3.80;92.10
76996;DHT22;65929;49.062;10.338;2023-03-03T05:08:25;-3.80;92.00
76996;DHT22;65929;49.062;10.338;2023-03-03T05:09:26;-3.80;91.90
76996;DHT22;65929;49.062;10.338;2023-03-03T05:10:27;-3.80;91.80
76996;DHT22;65929;49.062;10.338;2023-03-03T05:11:28;-3.80;91.80
76996;DHT22;65929;49.062;10.338;2023-03-03T05:12:29;-3.80;91.70
76996;DHT22;65929;49.062;10.338;2023-03-03T05:13:30;-3.80;91.70
76996;DHT22;65929;49.062;10.338;2023-03-03T05:14:31;-3.80;91.80
76996;DHT22;65929;49.062;10.338;2023-03-03T05:15:34;-3.80;91.70
76996;DHT22;65929;49.062;10.338;2023-03-03T05:16:35;-3.90;91.70
76996;DHT22;65929;49.062;10.338;2023-03-03T05:17:36;-3.90;91.60
76996;DHT22;65929;49.062;10.338;2023-03-03T05:18:37;-3.90;91.60
76996;DHT22;65929;49.062;10.338;2023-03-03T05:19:38;-4.00;91.50
76996;DHT22;65929;49.062;10.338;2023-03-03T05:20:39;-4.00;91.40
76996;DHT22;65929;49.062;10.338;2023-03-03T05:21:40;-4.00;91.40
76996;DHT22;65929;49.062;10.338;2023-03-03T05:22:41;-4.00;91.40
76996;DHT22;65929;49.062;10.338;2023-03-03T05:23:42;-4.00;91.40
76996;DHT22;65929;49.062;10.338;2023-03-03T05:24:44;-4.00;91.40
76996;DHT22;65929;49.062;10.338;2023-03-03T05:25:49;-4.00;91.30
76996;DHT22;65929;49.062;10.338;2023-03-03T05:26:50;-4.00;91.30
76996;DHT22;65929;49.062;10.338;2023-03-03T05:27:50;-4.00;91.20
76996;DHT22;65929;49.062;10.338;2023-03-03T05:28:51;-4.00;91.30
76996;DHT22;65929;49.062;10.338;2023-03-03T05:29:52;-4.10;91.40
76996;DHT22;65929;49.062;10.338;2023-03-03T05:30:55;-4.10;91.60
76996;DHT22;65929;49.062;10.338;2023-03-03T05:31:56;-4.00;91.80
76996;DHT22;65929;49.062;10.338;2023-03-03T05:32:57;-4.10;91.90
76996;DHT22;65929;49.062;10.338;2023-03-03T05:33:59;-4.10;92.00
76996;DHT22;65929;49.062;10.338;2023-03-03T05:35:00;-4.00;92.00
76996;DHT22;65929;49.062;10.338;2023-03-03T05:36:01;-4.10;92.00
76996;DHT22;65929;49.062;10.338;2023-03-03T05:37:02;-4.10;92.00
76996;DHT22;65929;49.062;10.338;2023-03-03T05:38:03;-4.10;92.10
76996;DHT22;65929;49.062;10.338;2023-03-03T05:39:04;-4.00;92.20
76996;DHT22;65929;49.062;10.338;2023-03-03T05:40:06;-4.10;92.20
76996;DHT22;65929;49.062;10.338;2023-03-03T05:41:07;-4.00;92.30
76996;DHT22;65929;49.062;10.338;2023-03-03T05:42:08;-4.00;92.40
76996;DHT22;65929;49.062;10.338;2023-03-03T05:43:09;-4.00;92.40
76996;DHT22;65929;49.062;10.338;2023-03-03T05:44:10;-4.00;92.50
76996;DHT22;65929;49.062;10.338;2023-03-03T05:45:11;-4.00;92.50
76996;DHT22;65929;49.062;10.338;2023-03-03T05:46:14;-4.00;92.50
76996;DHT22;65929;49.062;10.338;2023-03-03T05:47:15;-4.00;92.50
76996;DHT22;65929;49.062;10.338;2023-03-03T05:48:16;-4.00;92.50
76996;DHT22;65929;49.062;10.338;2023-03-03T05:49:17;-4.00;92.50
76996;DHT22;65929;49.062;10.338;2023-03-03T05:50:19;-4.00;92.50
76996;DHT22;65929;49.062;10.338;2023-03-03T05:51:20;-4.00;92.60
76996;DHT22;65929;49.062;10.338;2023-03-03T05:52:21;-4.00;92.60
76996;DHT22;65929;49.062;10.338;2023-03-03T05:53:23;-4.00;92.80
76996;DHT22;65929;49.062;10.338;2023-03-03T05:54:55;-4.00;93.00
76996;DHT22;65929;49.062;10.338;2023-03-03T05:55:57;-4.00;93.20
76996;DHT22;65929;49.062;10.338;2023-03-03T05:56:57;-3.90;93.30
76996;DHT22;65929;49.062;10.338;2023-03-03T05:57:58;-3.90;93.30
76996;DHT22;65929;49.062;10.338;2023-03-03T05:58:59;-3.90;93.20
76996;DHT22;65929;49.062;10.338;2023-03-03T06:00:00;-4.00;93.20
76996;DHT22;65929;49.062;10.338;2023-03-03T06:01:01;-4.00;93.20
76996;DHT22;65929;49.062;10.338;2023-03-03T06:02:04;-4.00;93.20
76996;DHT22;65929;49.062;10.338;2023-03-03T06:03:05;-4.00;93.20
76996;DHT22;65929;49.062;10.338;2023-03-03T06:04:06;-4.00;93.20
76996;DHT22;65929;49.062;10.338;2023-03-03T06:05:08;-4.00;93.20
76996;DHT22;65929;49.062;10.338;2023-03-03T06:06:10;-4.00;93.20
76996;DHT22;65929;49.062;10.338;2023-03-03T06:07:12;-4.00;93.20
76996;DHT22;65929;49.062;10.338;2023-03-03T06:08:12;-4.00;93.20
76996;DHT22;65929;49.062;10.338;2023-03-03T06:09:13;-4.00;93.20
76996;DHT22;65929;49.062;10.338;2023-03-03T06:10:15;-4.00;93.20
76996;DHT22;65929;49.062;10.338;2023-03-03T06:11:16;-3.90;93.20
76996;DHT22;65929;49.062;10.338;2023-03-03T06:12:18;-3.90;93.10
76996;DHT22;65929;49.062;10.338;2023-03-03T06:13:19;-3.90;93.10
76996;DHT22;65929;49.062;10.338;2023-03-03T06:14:21;-3.90;93.00
76996;DHT22;65929;49.062;10.338;2023-03-03T06:15:22;-3.80;93.00
76996;DHT22;65929;49.062;10.338;2023-03-03T06:16:23;-3.80;93.00
76996;DHT22;65929;49.062;10.338;2023-03-03T06:17:26;-3.80;93.10
76996;DHT22;65929;49.062;10.338;2023-03-03T06:18:27;-3.70;93.10
76996;DHT22;65929;49.062;10.338;2023-03-03T06:19:28;-3.60;93.20
76996;DHT22;65929;49.062;10.338;2023-03-03T06:20:29;-3.60;93.20
76996;DHT22;65929;49.062;10.338;2023-03-03T06:21:30;-3.60;93.20
76996;DHT22;65929;49.062;10.338;2023-03-03T06:22:31;-3.50;93.10
76996;DHT22;65929;49.062;10.338;2023-03-03T06:23:32;-3.50;93.10
76996;DHT22;65929;49.062;10.338;2023-03-03T06:24:33;-3.40;93.10
76996;DHT22;65929;49.062;10.338;2023-03-03T06:25:34;-3.30;93.00
76996;DHT22;65929;49.062;10.338;2023-03-03T06:26:36;-3.20;93.00
76996;DHT22;65929;49.062;10.338;2023-03-03T06:27:37;-3.20;93.00
76996;DHT22;65929;49.062;10.338;2023-03-03T06:28:38;-3.20;93.00
76996;DHT22;65929;49.062;10.338;2023-03-03T06:29:39;-3.10;92.90